Time;durP1;ratioP1;P1;durP2;ratioP2;P2;SDS_P1;SDS_P2;PMS_P1;PMS_P2;Temp;Humidity;BMP_temperature;BMP_pressure;BME280_temperature;BME280_humidity;BME280_pressure;Samples;Min_cycle;Max_cycle;Signal;HPM_P1;HPM_P2
2022/01/22 07:08:08;;;;;;;;;31.00;24.50;;;;;;;;5041708;22;1645623;-90
2022/01/22 07:10:33;;;;;;;;;31.25;28.00;;;;;;;;4972098;28;45523;-90
2022/01/22 07:12:59;;;;;;;;;30.75;29.50;;;;;;;;4977103;28;48053;-88
2022/01/22 07:15:24;;;;;;;;;29.50;25.50;;;;;;;;4995515;28;45357;-90
2022/01/22 07:17:49;;;;;;;;;31.75;26.75;;;;;;;;4976680;28;45674;-94
2022/01/22 07:20:18;;;;;;;;;30.50;24.50;;;;;;;;4979205;28;45626;-91
2022/01/22 07:25:24;;;;;;;;;40.25;26.50;;;;;;;;4993360;28;45527;-91
2022/01/22 07:27:50;;;;;;;;;25.25;21.25;;;;;;;;4997531;28;45371;-90
2022/01/22 07:30:15;;;;;;;;;30.25;25.00;;;;;;;;4980767;28;45509;-95
2022/01/22 07:32:43;;;;;;;;;27.50;25.50;;;;;;;;4978506;28;48009;-93
2022/01/22 07:35:09;;;;;;;;;30.50;22.75;;;;;;;;4962459;28;45374;-90
2022/01/22 07:37:36;;;;;;;;;28.25;25.75;;;;;;;;4974935;28;45435;-91
2022/01/22 07:40:02;;;;;;;;;29.75;23.00;;;;;;;;4980533;28;45576;-91
2022/01/22 07:42:28;;;;;;;;;31.00;28.50;;;;;;;;4963495;28;48278;-91
2022/01/22 07:44:53;;;;;;;;;28.50;26.25;;;;;;;;5001050;28;45399;-92
2022/01/22 07:47:18;;;;;;;;;30.25;25.75;;;;;;;;5006352;28;45462;-91
2022/01/22 07:49:44;;;;;;;;;37.00;25.75;;;;;;;;5002599;28;45418;-91
2022/01/22 07:52:09;;;;;;;;;35.00;28.00;;;;;;;;5006260;28;46362;-91
2022/01/22 07:54:34;;;;;;;;;25.25;19.75;;;;;;;;4991646;28;45296;-93
2022/01/22 07:57:02;;;;;;;;;29.25;22.75;;;;;;;;5004922;28;45604;-93
2022/01/22 07:59:27;;;;;;;;;24.75;22.75;;;;;;;;5014716;28;45354;-96
2022/01/22 08:01:52;;;;;;;;;32.50;28.75;;;;;;;;5003949;28;46299;-95
2022/01/22 08:04:23;;;;;;;;;26.25;23.25;;;;;;;;5007791;28;45387;-96
2022/01/22 08:06:48;;;;;;;;;25.00;20.50;;;;;;;;5016894;28;45299;-96
2022/01/22 08:09:14;;;;;;;;;23.00;22.25;;;;;;;;5008051;28;45273;-96
2022/01/22 08:11:39;;;;;;;;;35.75;25.75;;;;;;;;5004465;28;47316;-95
2022/01/22 08:14:04;;;;;;;;;28.75;25.00;;;;;;;;5016653;28;45638;-93
2022/01/22 08:16:29;;;;;;;;;32.50;28.25;;;;;;;;4999920;28;45253;-96
2022/01/22 08:18:54;;;;;;;;;28.00;22.75;;;;;;;;5003179;28;45446;-95
2022/01/22 08:21:20;;;;;;;;;25.75;21.75;;;;;;;;4990245;28;47201;-90
2022/01/22 08:23:45;;;;;;;;;34.75;29.00;;;;;;;;5012696;28;45686;-93
2022/01/22 08:26:17;;;;;;;;;27.25;26.50;;;;;;;;5004045;28;45400;-96
2022/01/22 08:28:57;;;;;;;;;28.50;24.75;;;;;;;;4998304;28;45583;-95
2022/01/22 08:31:43;;;;;;;;;33.25;27.50;;;;;;;;5015586;28;46446;-96
2022/01/22 08:36:54;;;;;;;;;33.75;30.50;;;;;;;;5024029;28;45446;-95
2022/01/22 08:39:19;;;;;;;;;33.25;26.75;;;;;;;;5002377;28;45290;-96
2022/01/22 08:41:44;;;;;;;;;34.50;25.75;;;;;;;;4991019;28;46299;-95
2022/01/22 08:44:10;;;;;;;;;30.25;22.25;;;;;;;;5004757;28;45389;-95
2022/01/22 08:46:36;;;;;;;;;27.00;23.00;;;;;;;;5014790;28;45482;-96
2022/01/22 08:49:01;;;;;;;;;31.50;27.25;;;;;;;;5016154;28;45442;-95
2022/01/22 08:51:27;;;;;;;;;30.75;26.50;;;;;;;;5015611;28;47051;-95
2022/01/22 08:53:52;;;;;;;;;34.75;26.00;;;;;;;;4997469;28;45695;-96
2022/01/22 08:56:17;;;;;;;;;31.25;28.25;;;;;;;;4978402;28;45417;-96
2022/01/22 08:58:43;;;;;;;;;31.50;27.25;;;;;;;;4995963;28;45170;-96
2022/01/22 09:01:08;;;;;;;;;35.00;26.75;;;;;;;;4985277;28;48441;-96
2022/01/22 09:03:34;;;;;;;;;37.75;32.00;;;;;;;;5000499;28;45371;-95
2022/01/22 09:06:01;;;;;;;;;39.00;26.00;;;;;;;;4997783;28;45637;-94
2022/01/22 09:08:27;;;;;;;;;35.25;28.25;;;;;;;;4997960;28;45550;-95
2022/01/22 09:10:53;;;;;;;;;27.50;24.75;;;;;;;;4997450;28;47045;-96
2022/01/22 09:13:19;;;;;;;;;28.75;26.25;;;;;;;;5006608;28;45321;-96
2022/01/22 09:15:44;;;;;;;;;29.25;22.75;;;;;;;;5009601;28;45290;-96
2022/01/22 09:18:10;;;;;;;;;27.50;25.00;;;;;;;;4998170;28;45341;-96
2022/01/22 09:23:04;;;;;;;;;28.50;25.50;;;;;;;;5040805;28;45431;-96
2022/01/22 09:25:29;;;;;;;;;29.75;27.75;;;;;;;;5016305;28;45294;-96
2022/01/22 09:27:54;;;;;;;;;32.00;27.25;;;;;;;;5010528;28;45218;-96
2022/01/22 09:30:19;;;;;;;;;36.75;30.00;;;;;;;;5011277;28;46096;-96
2022/01/22 09:32:45;;;;;;;;;29.00;24.50;;;;;;;;5020954;28;45563;-96
2022/01/22 09:35:10;;;;;;;;;27.25;23.50;;;;;;;;5027673;28;45431;-96
2022/01/22 09:37:35;;;;;;;;;31.50;28.75;;;;;;;;5000572;28;45655;-95
2022/01/22 09:40:00;;;;;;;;;37.50;34.00;;;;;;;;5008875;28;47263;-96
2022/01/22 09:42:26;;;;;;;;;27.75;25.00;;;;;;;;5014901;28;45360;-96
2022/01/22 09:44:51;;;;;;;;;30.25;24.00;;;;;;;;5018504;28;45353;-96
2022/01/22 09:47:20;;;;;;;;;39.00;27.00;;;;;;;;4984632;28;45302;-96
2022/01/22 09:49:46;;;;;;;;;31.25;26.75;;;;;;;;5015260;28;45404;-95
2022/01/22 09:52:12;;;;;;;;;36.25;29.00;;;;;;;;5009110;28;45528;-95
2022/01/22 09:54:37;;;;;;;;;32.75;31.25;;;;;;;;4994489;28;45337;-96
2022/01/22 09:57:04;;;;;;;;;35.25;31.50;;;;;;;;5015221;28;45408;-95
2022/01/22 09:59:30;;;;;;;;;36.00;28.25;;;;;;;;5018025;28;45274;-95
2022/01/22 10:02:07;;;;;;;;;25.50;24.50;;;;;;;;5010226;28;45746;-96
2022/01/22 10:04:36;;;;;;;;;31.00;28.25;;;;;;;;5000331;28;45371;-95
2022/01/22 10:07:02;;;;;;;;;36.75;31.00;;;;;;;;4991655;28;45530;-96
2022/01/22 10:09:34;;;;;;;;;33.50;32.00;;;;;;;;4981332;28;47572;-96
2022/01/22 10:12:27;;;;;;;;;30.50;27.00;;;;;;;;4981402;28;45310;-96
2022/01/22 10:15:11;;;;;;;;;37.50;32.00;;;;;;;;4986680;28;45109;-96
2022/01/22 10:17:43;;;;;;;;;37.75;36.50;;;;;;;;5006973;28;45452;-96
2022/01/22 10:20:23;;;;;;;;;38.75;33.50;;;;;;;;4992975;28;47528;-96
2022/01/22 10:22:49;;;;;;;;;34.50;30.50;;;;;;;;5002754;28;45322;-96
2022/01/22 10:25:24;;;;;;;;;41.50;34.00;;;;;;;;4987209;28;45493;-96
2022/01/22 10:27:56;;;;;;;;;37.25;33.50;;;;;;;;4996645;28;45237;-95
2022/01/22 10:30:21;;;;;;;;;34.25;30.25;;;;;;;;4983457;28;46616;-96
2022/01/22 10:32:51;;;;;;;;;39.00;31.50;;;;;;;;5002650;28;45337;-96
2022/01/22 10:35:24;;;;;;;;;34.00;30.25;;;;;;;;5001124;28;45488;-92
2022/01/22 10:38:00;;;;;;;;;35.25;30.75;;;;;;;;4983535;28;45446;-96
2022/01/22 10:40:29;;;;;;;;;34.75;31.25;;;;;;;;4973121;28;46258;-96
2022/01/22 10:43:16;;;;;;;;;34.25;26.25;;;;;;;;4988145;28;45415;-91
2022/01/22 10:45:42;;;;;;;;;34.25;28.50;;;;;;;;4995594;28;45451;-95
2022/01/22 10:48:15;;;;;;;;;38.25;28.50;;;;;;;;4980197;28;45601;-93
2022/01/22 10:50:40;;;;;;;;;33.50;27.25;;;;;;;;4985727;28;45415;-96
2022/01/22 10:53:05;;;;;;;;;39.75;33.00;;;;;;;;4972068;28;44742;-96
2022/01/22 10:55:33;;;;;;;;;36.00;27.75;;;;;;;;4989008;28;44846;-96
2022/01/22 10:58:10;;;;;;;;;29.25;26.75;;;;;;;;4981158;28;45613;-95
2022/01/22 11:00:36;;;;;;;;;28.00;25.50;;;;;;;;5004309;28;45340;-96
2022/01/22 11:03:20;;;;;;;;;31.50;29.00;;;;;;;;4985807;28;45524;-96
2022/01/22 11:05:45;;;;;;;;;30.00;28.25;;;;;;;;4987207;28;45276;-96
2022/01/22 11:08:14;;;;;;;;;32.75;27.75;;;;;;;;5031596;28;45286;-96
2022/01/22 11:10:43;;;;;;;;;29.00;26.00;;;;;;;;5000316;28;46185;-96
2022/01/22 11:13:08;;;;;;;;;34.50;28.50;;;;;;;;5020439;28;45353;-96
2022/01/22 11:15:34;;;;;;;;;35.75;30.25;;;;;;;;5016992;28;45597;-95
2022/01/22 11:18:01;;;;;;;;;32.50;26.50;;;;;;;;4998089;28;45334;-96
2022/01/22 11:20:26;;;;;;;;;25.50;20.00;;;;;;;;5035527;28;45658;-96
2022/01/22 11:22:52;;;;;;;;;36.00;28.75;;;;;;;;5032650;28;45429;-96
2022/01/22 11:25:18;;;;;;;;;26.25;25.00;;;;;;;;5010633;28;45543;-96
2022/01/22 11:27:44;;;;;;;;;30.67;24.00;;;;;;;;4998783;28;45354;-96
2022/01/22 11:30:12;;;;;;;;;26.33;21.67;;;;;;;;5017129;28;45564;-96
2022/01/22 11:32:43;;;;;;;;;22.00;21.00;;;;;;;;4998958;28;45371;-96
2022/01/22 11:35:09;;;;;;;;;33.75;25.00;;;;;;;;5016752;28;45603;-96
2022/01/22 11:37:34;;;;;;;;;25.33;17.00;;;;;;;;5001150;28;45453;-95
2022/01/22 11:40:12;;;;;;;;;31.50;25.00;;;;;;;;4999565;28;46428;-96
2022/01/22 11:42:57;;;;;;;;;33.00;25.75;;;;;;;;5011901;28;45466;-96
2022/01/22 11:45:24;;;;;;;;;31.00;27.00;;;;;;;;5024225;28;45530;-94
2022/01/22 11:48:08;;;;;;;;;37.00;33.00;;;;;;;;5002074;28;45554;-96
2022/01/22 11:50:34;;;;;;;;;26.75;21.50;;;;;;;;4980075;28;46130;-95
2022/01/22 11:53:19;;;;;;;;;22.33;21.00;;;;;;;;5018906;28;53185;-95
2022/01/22 11:56:04;;;;;;;;;29.67;23.33;;;;;;;;5022690;28;45305;-95
2022/01/22 11:58:29;;;;;;;;;23.00;22.00;;;;;;;;4993581;28;45322;-95
2022/01/22 12:00:55;;;;;;;;;25.67;22.33;;;;;;;;5012684;28;45450;-96
2022/01/22 12:03:20;;;;;;;;;26.33;21.00;;;;;;;;5020561;28;45406;-96
2022/01/22 12:05:54;;;;;;;;;23.67;23.00;;;;;;;;4990951;28;45318;-94
2022/01/22 12:08:23;;;;;;;;;22.67;20.00;;;;;;;;5001106;28;45519;-96
2022/01/22 12:16:13;;;;;;;;;35.33;25.33;;;;;;;;5010890;28;45341;-95
2022/01/22 12:18:44;;;;;;;;;26.00;23.00;;;;;;;;5012700;28;45385;-96
2022/01/22 12:23:54;;;;;;;;;28.67;22.33;;;;;;;;5022717;28;45249;-96
2022/01/22 12:26:49;;;;;;;;;29.67;25.00;;;;;;;;4996995;28;45589;-96
2022/01/22 12:34:56;;;;;;;;;34.75;28.50;;;;;;;;5140577;22;45455;-95
2022/01/22 12:37:22;;;;;;;;;36.25;29.00;;;;;;;;5016675;28;45431;-96
2022/01/22 12:39:51;;;;;;;;;26.67;22.67;;;;;;;;5029056;28;45126;-96
2022/01/22 12:42:53;;;;;;;;;30.00;25.00;;;;;;;;5052027;28;45275;-96
2022/01/22 12:45:08;;;;;;;;;29.67;22.00;;;;;;;;5043908;28;45257;-96
2022/01/22 12:47:35;;;;;;;;;35.33;26.00;;;;;;;;5014437;28;45412;-96
2022/01/22 12:50:06;;;;;;;;;24.67;24.33;;;;;;;;5011924;28;45568;-96
2022/01/22 12:52:33;;;;;;;;;28.67;27.33;;;;;;;;5020333;28;46400;-96
2022/01/22 12:54:59;;;;;;;;;29.75;25.00;;;;;;;;5017390;28;45726;-96
2022/01/22 12:57:27;;;;;;;;;30.33;25.67;;;;;;;;5036596;28;45456;-96
2022/01/22 12:59:52;;;;;;;;;30.00;26.25;;;;;;;;5035767;28;45154;-96
2022/01/22 13:02:18;;;;;;;;;33.00;27.50;;;;;;;;5024923;28;46131;-96
2022/01/22 13:04:59;;;;;;;;;30.67;24.00;;;;;;;;5007389;28;45561;-96
2022/01/22 13:07:26;;;;;;;;;28.67;26.00;;;;;;;;5010706;28;45401;-96
2022/01/22 13:09:55;;;;;;;;;33.25;28.50;;;;;;;;5019509;28;45148;-96
2022/01/22 13:12:20;;;;;;;;;30.75;29.00;;;;;;;;5028022;28;46231;-96
2022/01/22 13:14:46;;;;;;;;;33.25;28.00;;;;;;;;5033814;28;44810;-97
2022/01/22 13:17:14;;;;;;;;;38.75;32.00;;;;;;;;5033191;28;45255;-97
2022/01/22 13:19:39;;;;;;;;;37.50;31.25;;;;;;;;5051160;28;44766;-96
2022/01/22 13:22:05;;;;;;;;;33.00;27.75;;;;;;;;5206246;22;46418;-95
2022/01/22 13:24:31;;;;;;;;;36.25;26.25;;;;;;;;4996133;28;45398;-96
2022/01/22 13:27:04;;;;;;;;;32.50;29.00;;;;;;;;5008221;28;45735;-96
2022/01/22 13:29:35;;;;;;;;;41.75;35.25;;;;;;;;5020163;28;45602;-96
2022/01/22 13:32:06;;;;;;;;;31.25;26.25;;;;;;;;5003492;28;46424;-96
2022/01/22 13:34:52;;;;;;;;;25.33;23.67;;;;;;;;5019518;28;45676;-96
2022/01/22 13:48:09;;;;;;;;;36.75;29.75;;;;;;;;4988426;28;45833;-96
2022/01/22 13:50:34;;;;;;;;;34.75;34.50;;;;;;;;4960943;28;45489;-96
2022/01/22 13:53:00;;;;;;;;;34.25;25.50;;;;;;;;4973750;28;48119;-96
2022/01/22 13:55:26;;;;;;;;;28.00;26.33;;;;;;;;4984432;28;45598;-96
2022/01/22 13:57:52;;;;;;;;;30.50;28.00;;;;;;;;4975659;28;45435;-96
2022/01/22 14:00:18;;;;;;;;;28.75;27.00;;;;;;;;4972300;28;45776;-96
2022/01/22 14:05:29;;;;;;;;;33.25;25.75;;;;;;;;4995056;28;45356;-96
2022/01/22 14:07:59;;;;;;;;;41.75;31.25;;;;;;;;4992984;28;45475;-96
2022/01/22 14:10:25;;;;;;;;;35.25;30.00;;;;;;;;4995505;28;44815;-96
2022/01/22 14:12:57;;;;;;;;;33.75;27.75;;;;;;;;4978769;28;46288;-96
2022/01/22 14:15:26;;;;;;;;;38.50;31.00;;;;;;;;4986366;28;45387;-96
2022/01/22 14:17:52;;;;;;;;;37.25;33.75;;;;;;;;4987156;28;45362;-96
2022/01/22 14:20:22;;;;;;;;;43.75;35.50;;;;;;;;4986737;28;45163;-96
2022/01/22 14:22:51;;;;;;;;;42.50;36.50;;;;;;;;4987831;28;48452;-96
2022/01/22 14:25:17;;;;;;;;;29.25;27.25;;;;;;;;5006162;28;45740;-96
2022/01/22 14:27:58;;;;;;;;;45.00;34.00;;;;;;;;5032839;28;45331;-96
2022/01/22 14:30:32;;;;;;;;;46.50;38.25;;;;;;;;5028859;28;45388;-96
2022/01/22 14:32:58;;;;;;;;;42.00;31.75;;;;;;;;5010623;28;47371;-96
2022/01/22 14:35:23;;;;;;;;;36.50;31.25;;;;;;;;5028966;28;45456;-96
2022/01/22 14:37:52;;;;;;;;;53.25;42.25;;;;;;;;5027910;28;45295;-96
2022/01/22 14:45:56;;;;;;;;;42.25;37.50;;;;;;;;5039211;28;45702;-94
2022/01/22 14:48:21;;;;;;;;;44.75;39.00;;;;;;;;5025060;28;45682;-95
2022/01/22 14:50:46;;;;;;;;;47.25;36.75;;;;;;;;5040429;28;45437;-95
2022/01/22 14:53:12;;;;;;;;;47.75;38.75;;;;;;;;5022189;28;47101;-95
2022/01/22 14:55:46;;;;;;;;;43.50;36.75;;;;;;;;5020354;28;45862;-95
2022/01/22 14:58:11;;;;;;;;;51.50;36.25;;;;;;;;5028750;28;45512;-95
2022/01/22 15:00:37;;;;;;;;;61.50;47.50;;;;;;;;5025799;28;45468;-96
2022/01/22 15:03:02;;;;;;;;;62.75;47.25;;;;;;;;5011119;28;47092;-96
2022/01/22 15:05:27;;;;;;;;;57.50;44.75;;;;;;;;5019367;28;45269;-96
2022/01/22 15:07:54;;;;;;;;;61.50;47.50;;;;;;;;5021682;28;45544;-96
2022/01/22 15:10:20;;;;;;;;;46.50;37.25;;;;;;;;5017249;28;45546;-95
2022/01/22 15:12:46;;;;;;;;;37.50;33.50;;;;;;;;5035928;28;45333;-95
2022/01/22 15:15:12;;;;;;;;;45.00;38.25;;;;;;;;5034189;28;47180;-95
2022/01/22 15:20:02;;;;;;;;;42.50;35.50;;;;;;;;5035197;28;45494;-95
2022/01/22 15:22:27;;;;;;;;;38.00;35.50;;;;;;;;5004433;28;48328;-95
2022/01/22 15:24:54;;;;;;;;;40.25;35.50;;;;;;;;5008941;28;45330;-96
2022/01/22 15:27:20;;;;;;;;;42.25;35.75;;;;;;;;5005119;28;45521;-96
2022/01/22 15:29:58;;;;;;;;;49.00;35.25;;;;;;;;5017205;28;45341;-95
2022/01/22 15:35:04;;;;;;;;;42.50;35.25;;;;;;;;5017238;28;45432;-96
2022/01/22 15:37:29;;;;;;;;;51.25;38.00;;;;;;;;4985255;28;45371;-96
2022/01/22 15:39:54;;;;;;;;;38.25;32.25;;;;;;;;5001984;28;45483;-92
2022/01/22 15:42:20;;;;;;;;;41.50;32.25;;;;;;;;5008772;28;47743;-96
2022/01/22 15:44:48;;;;;;;;;29.00;29.00;;;;;;;;4976914;28;45266;-96
2022/01/22 15:47:14;;;;;;;;;50.00;38.00;;;;;;;;5009073;28;45440;-96
2022/01/22 15:49:44;;;;;;;;;36.00;29.75;;;;;;;;4990030;28;45375;-96
2022/01/22 15:52:14;;;;;;;;;41.75;34.25;;;;;;;;5005402;28;47719;-95
2022/01/22 15:54:41;;;;;;;;;43.50;32.25;;;;;;;;5023267;28;44735;-94
2022/01/22 15:57:08;;;;;;;;;43.75;36.00;;;;;;;;5022158;28;45377;-96
2022/01/22 15:59:34;;;;;;;;;42.50;33.50;;;;;;;;5023210;28;45179;-94
2022/01/22 16:02:01;;;;;;;;;41.50;35.00;;;;;;;;5003434;28;48188;-96
2022/01/22 16:04:26;;;;;;;;;37.75;33.75;;;;;;;;4988813;28;44864;-95
2022/01/22 16:09:20;;;;;;;;;39.50;36.25;;;;;;;;5027683;28;45338;-96
2022/01/22 16:11:51;;;;;;;;;46.50;34.25;;;;;;;;5012075;28;47794;-96
2022/01/22 16:14:25;;;;;;;;;48.25;39.00;;;;;;;;5006581;28;46021;-96
2022/01/22 16:24:48;;;;;;;;;43.50;33.00;;;;;;;;5066643;22;45402;-96
2022/01/22 16:27:14;;;;;;;;;43.75;34.25;;;;;;;;5026414;28;45270;-96
2022/01/22 16:29:39;;;;;;;;;36.75;31.50;;;;;;;;5010578;28;44871;-96
2022/01/22 16:32:04;;;;;;;;;38.25;30.25;;;;;;;;4997096;28;47438;-96
2022/01/22 16:34:36;;;;;;;;;45.75;35.25;;;;;;;;4995040;28;45425;-95
2022/01/22 16:37:01;;;;;;;;;42.25;35.50;;;;;;;;5014353;28;44898;-96
2022/01/22 16:39:26;;;;;;;;;43.00;35.00;;;;;;;;4994573;28;45289;-94
2022/01/22 16:41:59;;;;;;;;;51.25;40.75;;;;;;;;4993841;28;46565;-95
2022/01/22 16:44:32;;;;;;;;;51.75;41.00;;;;;;;;5014366;28;44941;-96
2022/01/22 16:53:15;;;;;;;;;32.00;31.00;;;;;;;;5026317;28;45363;-96
2022/01/22 16:58:00;;;;;;;;;46.25;35.00;;;;;;;;5020629;28;45397;-96
2022/01/22 17:00:29;;;;;;;;;42.75;32.50;;;;;;;;4996830;28;45447;-96
2022/01/22 17:02:55;;;;;;;;;54.75;37.75;;;;;;;;5181610;22;46525;-96
2022/01/22 17:05:21;;;;;;;;;43.00;35.00;;;;;;;;5230908;22;44946;-96
2022/01/22 17:15:49;;;;;;;;;53.75;40.50;;;;;;;;5952404;22;46488;-96
2022/01/22 17:18:14;;;;;;;;;42.50;35.00;;;;;;;;5273395;22;46108;-96
2022/01/22 17:20:39;;;;;;;;;42.00;36.50;;;;;;;;5097618;22;45325;-96
2022/01/22 17:28:14;;;;;;;;;43.75;31.50;;;;;;;;5793069;22;45644;-96
2022/01/22 17:30:40;;;;;;;;;39.50;34.25;;;;;;;;5018587;28;45598;-96
2022/01/22 17:33:05;;;;;;;;;41.00;36.50;;;;;;;;5024705;28;45560;-96
2022/01/22 17:35:34;;;;;;;;;44.00;36.25;;;;;;;;5017280;28;45508;-96
2022/01/22 17:38:00;;;;;;;;;44.75;37.00;;;;;;;;5016527;28;45523;-96
2022/01/22 17:40:25;;;;;;;;;45.00;36.75;;;;;;;;5011823;28;45491;-96
2022/01/22 17:42:51;;;;;;;;;44.50;35.00;;;;;;;;5032026;28;45252;-96
2022/01/22 17:45:17;;;;;;;;;42.00;30.25;;;;;;;;5025157;28;45375;-96
2022/01/22 17:47:42;;;;;;;;;46.25;36.50;;;;;;;;5026613;28;45440;-96
2022/01/22 17:50:09;;;;;;;;;46.00;37.00;;;;;;;;5013872;28;45627;-96
2022/01/22 17:52:34;;;;;;;;;55.25;41.50;;;;;;;;5028129;28;46734;-96
2022/01/22 17:54:59;;;;;;;;;58.00;47.25;;;;;;;;5056221;28;45232;-96
2022/01/22 17:57:27;;;;;;;;;53.25;45.00;;;;;;;;5040658;28;45166;-96
2022/01/22 17:59:52;;;;;;;;;46.50;37.50;;;;;;;;5038729;28;44886;-96
2022/01/22 18:02:19;;;;;;;;;42.75;33.50;;;;;;;;5017995;28;46375;-96
2022/01/22 18:04:45;;;;;;;;;39.75;33.50;;;;;;;;5031964;28;44850;-96
2022/01/22 18:07:10;;;;;;;;;38.50;32.50;;;;;;;;5145315;22;44928;-96
2022/01/22 18:12:11;;;;;;;;;28.50;22.00;;;;;;;;5264809;22;46509;-96
2022/01/22 18:14:36;;;;;;;;;43.25;34.25;;;;;;;;5038712;28;45408;-95
2022/01/22 18:32:29;;;;;;;;;39.50;35.75;;;;;;;;5342252;22;46147;-95
2022/01/22 18:34:55;;;;;;;;;42.50;34.25;;;;;;;;5057884;28;45246;-96
2022/01/22 18:37:20;;;;;;;;;35.00;30.00;;;;;;;;5037701;28;44954;-96
2022/01/22 18:39:45;;;;;;;;;38.00;31.25;;;;;;;;5033730;28;44877;-96
2022/01/22 18:42:11;;;;;;;;;46.25;37.50;;;;;;;;5034992;28;45421;-96
2022/01/22 18:44:36;;;;;;;;;40.50;32.25;;;;;;;;5036603;28;44731;-97
2022/01/22 18:47:01;;;;;;;;;44.25;35.25;;;;;;;;5036044;28;45321;-96
2022/01/22 18:49:27;;;;;;;;;39.25;32.25;;;;;;;;5035016;28;45302;-96
2022/01/22 18:54:27;;;;;;;;;35.50;32.75;;;;;;;;5188177;22;46998;-96
2022/01/22 18:56:52;;;;;;;;;55.25;41.00;;;;;;;;5036860;28;45348;-96
2022/01/22 18:59:18;;;;;;;;;39.50;33.75;;;;;;;;5029892;28;44955;-96
2022/01/22 19:01:43;;;;;;;;;43.00;37.25;;;;;;;;5016874;28;45554;-96
2022/01/22 19:04:10;;;;;;;;;40.25;36.75;;;;;;;;5029289;28;45411;-96
2022/01/22 19:06:37;;;;;;;;;38.50;36.25;;;;;;;;5247821;22;46382;-96
2022/01/22 19:16:47;;;;;;;;;34.75;32.25;;;;;;;;5443294;22;45256;-96
2022/01/22 19:19:13;;;;;;;;;47.00;37.75;;;;;;;;5063081;28;44738;-96
2022/01/22 19:24:29;;;;;;;;;50.50;37.50;;;;;;;;5584950;22;46392;-96
2022/01/22 19:32:14;;;;;;;;;55.00;37.75;;;;;;;;5773711;22;46310;-96
2022/01/22 19:34:40;;;;;;;;;49.50;38.25;;;;;;;;5003474;28;45098;-96
2022/01/22 19:37:05;;;;;;;;;41.00;36.50;;;;;;;;5024908;28;44889;-96
2022/01/22 19:39:31;;;;;;;;;45.00;37.75;;;;;;;;5039448;28;45143;-96
2022/01/22 19:41:58;;;;;;;;;47.75;39.75;;;;;;;;5058715;28;45618;-96
2022/01/22 20:33:29;;;;;;;;;48.25;39.00;;;;;;;;5792861;22;46267;-95
